createdAt,value
2023-05-04T00:00:42.023Z,62.04
2023-05-04T00:01:42.023Z,76.22
2023-05-04T00:02:42.641Z,52.05
2023-05-04T00:03:42.060Z,50.76
2023-05-04T00:04:43.065Z,51.24
2023-05-04T00:05:43.009Z,50.43
2023-05-04T00:06:42.522Z,51.72
2023-05-04T00:07:43.057Z,74.77
2023-05-04T00:08:42.916Z,56.24
2023-05-04T00:09:44.040Z,50.60
2023-05-04T00:10:43.170Z,77.18
2023-05-04T00:11:43.332Z,74.44
2023-05-04T00:12:43.529Z,51.08
2023-05-04T00:13:43.701Z,51.24
2023-05-04T00:14:43.880Z,81.86
2023-05-04T00:15:44.070Z,49.47
2023-05-04T00:16:45.053Z,50.27
2023-05-04T00:17:46.020Z,51.56
2023-05-04T00:18:44.540Z,50.27
2023-05-04T00:19:45.727Z,49.95
2023-05-04T00:20:44.850Z,50.92
2023-05-04T00:21:45.553Z,51.56
2023-05-04T00:22:45.157Z,77.18
2023-05-04T00:23:45.329Z,59.46
2023-05-04T00:24:45.472Z,68.96
2023-05-04T00:25:46.519Z,50.60
2023-05-04T00:26:45.761Z,50.27
2023-05-04T00:27:45.903Z,48.82
2023-05-04T00:28:46.530Z,49.95
2023-05-04T00:29:46.189Z,74.93
2023-05-04T00:30:47.016Z,66.23
2023-05-04T00:31:47.043Z,51.40
2023-05-04T00:32:48.433Z,49.79
2023-05-04T00:33:47.485Z,49.95
2023-05-04T00:34:47.131Z,58.49
2023-05-04T00:35:47.302Z,77.18
2023-05-04T00:36:47.471Z,50.27
2023-05-04T00:37:48.032Z,50.92
2023-05-04T00:38:47.804Z,52.37
2023-05-04T00:39:47.981Z,52.53
2023-05-04T00:40:49.979Z,70.42
2023-05-04T00:41:48.989Z,51.88
2023-05-04T00:42:49.489Z,51.88
2023-05-04T00:43:48.760Z,74.12
2023-05-04T00:44:49.485Z,50.60
2023-05-04T00:45:50.041Z,53.82
2023-05-04T00:46:49.331Z,49.95
2023-05-04T00:47:49.554Z,73.64
2023-05-04T00:48:50.522Z,49.95
2023-05-04T00:49:49.885Z,50.92
2023-05-04T00:50:50.180Z,69.77
2023-05-04T00:51:50.879Z,74.60
2023-05-04T00:52:50.384Z,63.33
2023-05-04T00:53:51.034Z,49.47
2023-05-04T00:54:51.035Z,51.56
2023-05-04T00:55:50.908Z,52.05
2023-05-04T00:56:51.064Z,68.32
2023-05-04T00:57:51.178Z,50.92
2023-05-04T00:58:52.880Z,74.12
2023-05-04T00:59:52.491Z,50.11
2023-05-04T01:00:51.652Z,49.79
2023-05-04T01:01:51.796Z,50.76
2023-05-04T01:02:52.089Z,49.95
2023-05-04T01:03:53.094Z,49.47
2023-05-04T01:04:53.025Z,49.79
2023-05-04T01:05:52.643Z,52.69
2023-05-04T01:06:53.492Z,73.32
2023-05-04T01:07:52.979Z,60.42
2023-05-04T01:08:53.125Z,49.31
2023-05-04T01:09:53.282Z,51.72
2023-05-04T01:10:53.428Z,49.79
2023-05-04T01:11:53.660Z,51.56
2023-05-04T01:12:54.518Z,49.79
2023-05-04T01:13:54.527Z,52.85
2023-05-04T01:14:54.117Z,50.27
2023-05-04T01:15:54.260Z,49.15
2023-05-04T01:16:54.425Z,49.63
2023-05-04T01:17:54.597Z,73.15
2023-05-04T01:18:55.534Z,49.63
2023-05-04T01:20:16.026Z,50.11
2023-05-04T01:20:56.064Z,49.95
2023-05-04T01:21:55.424Z,51.88
2023-05-04T01:22:57.011Z,51.24
2023-05-04T01:23:56.536Z,50.60
2023-05-04T01:24:56.561Z,49.95
2023-05-04T01:25:57.892Z,52.37
2023-05-04T01:26:56.240Z,53.66
2023-05-04T01:27:56.359Z,71.54
2023-05-04T01:28:56.594Z,71.38
2023-05-04T01:29:56.831Z,72.99
2023-05-04T01:30:56.979Z,51.24
2023-05-04T01:31:58.000Z,51.88
2023-05-04T01:32:57.590Z,50.76
2023-05-04T01:33:57.596Z,49.95
2023-05-04T01:34:58.508Z,49.63
2023-05-04T01:35:58.517Z,53.33
2023-05-04T01:36:58.937Z,50.76
2023-05-04T01:37:58.123Z,50.43
2023-05-04T01:38:58.547Z,70.25
2023-05-04T01:39:58.534Z,60.75
2023-05-04T01:40:58.766Z,69.45
2023-05-04T01:41:59.533Z,74.93
2023-05-04T01:42:59.027Z,73.15
2023-05-04T01:43:59.190Z,50.11
2023-05-04T01:44:59.295Z,49.63
2023-05-04T01:45:59.590Z,70.58
2023-05-04T01:46:59.769Z,74.77
2023-05-04T01:47:59.927Z,50.60
2023-05-04T01:49:00.108Z,51.08
2023-05-04T01:50:01.074Z,52.53
2023-05-04T01:51:00.420Z,76.70
2023-05-04T01:52:00.570Z,58.49
2023-05-04T01:53:02.012Z,79.12
2023-05-04T01:54:01.497Z,59.46
2023-05-04T01:55:01.031Z,74.93
2023-05-04T01:56:01.214Z,73.64
2023-05-04T01:57:01.340Z,71.38
2023-05-04T01:58:02.048Z,54.30
2023-05-04T01:59:01.690Z,50.76
2023-05-04T02:00:02.712Z,52.05
2023-05-04T02:01:03.033Z,74.44
2023-05-04T02:02:02.242Z,54.95
2023-05-04T02:03:02.474Z,72.67
2023-05-04T02:04:02.785Z,55.11
2023-05-04T02:05:02.732Z,71.87
2023-05-04T02:06:02.876Z,54.79
2023-05-04T02:07:04.055Z,54.30
2023-05-04T02:08:04.006Z,53.82
2023-05-04T02:09:03.547Z,69.45
2023-05-04T02:10:04.709Z,79.12
2023-05-04T02:11:03.764Z,72.99
2023-05-04T02:12:03.948Z,79.92
2023-05-04T02:13:04.158Z,70.74
2023-05-04T02:14:04.265Z,55.43
2023-05-04T02:15:05.023Z,76.22
2023-05-04T02:16:04.755Z,60.26
2023-05-04T02:17:04.861Z,58.33
2023-05-04T02:18:05.078Z,77.67
2023-05-04T02:19:05.212Z,67.35
2023-05-04T02:20:06.355Z,68.32
2023-05-04T02:21:05.522Z,53.82
2023-05-04T02:22:06.632Z,79.92
2023-05-04T02:23:06.548Z,72.83
2023-05-04T02:24:07.048Z,73.64
2023-05-04T02:25:06.367Z,76.70
2023-05-04T02:26:07.560Z,56.56
2023-05-04T02:27:06.713Z,56.07
2023-05-04T02:28:06.902Z,74.28
2023-05-04T02:29:08.011Z,80.73
2023-05-04T02:30:07.552Z,77.02
2023-05-04T02:31:07.516Z,51.40
2023-05-04T02:32:09.534Z,74.93
2023-05-04T02:33:08.665Z,54.95
2023-05-04T02:34:09.043Z,76.54
2023-05-04T02:35:08.321Z,58.81
2023-05-04T02:36:08.501Z,76.05
2023-05-04T02:37:09.612Z,74.60
2023-05-04T02:38:09.525Z,74.60
2023-05-04T02:39:09.547Z,76.86
2023-05-04T02:40:10.049Z,74.28
2023-05-04T02:41:09.446Z,71.54
2023-05-04T02:42:10.081Z,59.78
2023-05-04T02:43:09.881Z,77.02
2023-05-04T02:44:10.078Z,77.99
2023-05-04T02:45:10.251Z,56.88
2023-05-04T02:46:11.061Z,77.18
2023-05-04T02:47:10.641Z,75.89
2023-05-04T02:48:10.832Z,72.35
2023-05-04T02:49:11.033Z,77.83
2023-05-04T02:50:12.052Z,78.31
2023-05-04T02:51:11.349Z,73.96
2023-05-04T02:52:12.903Z,72.83
2023-05-04T02:53:12.544Z,77.67
2023-05-04T02:54:12.520Z,78.15
2023-05-04T02:55:12.057Z,80.57
2023-05-04T02:56:12.211Z,79.28
2023-05-04T02:57:13.957Z,61.23
2023-05-04T02:58:13.517Z,78.79
2023-05-04T02:59:12.753Z,73.64
2023-05-04T03:00:12.879Z,76.22
2023-05-04T03:01:13.615Z,75.25
2023-05-04T03:02:14.055Z,62.52
2023-05-04T03:03:14.068Z,74.44
2023-05-04T03:04:14.046Z,77.67
2023-05-04T03:05:14.531Z,76.05
2023-05-04T03:06:14.520Z,76.22
2023-05-04T03:07:15.027Z,76.22
2023-05-04T03:08:14.139Z,74.93
2023-05-04T03:09:14.308Z,74.93
2023-05-04T03:10:14.476Z,77.02
2023-05-04T03:11:14.624Z,81.69
2023-05-04T03:12:14.782Z,75.73
2023-05-04T03:13:15.768Z,80.08
2023-05-04T03:14:15.103Z,78.96
2023-05-04T03:15:15.259Z,76.54
2023-05-04T03:16:16.073Z,76.54
2023-05-04T03:17:17.020Z,79.92
2023-05-04T03:18:15.759Z,79.60
2023-05-04T03:19:16.573Z,77.50
2023-05-04T03:20:17.030Z,81.53
2023-05-04T03:21:16.378Z,81.05
2023-05-04T03:22:16.529Z,78.96
2023-05-04T03:23:16.652Z,78.15
2023-05-04T03:24:17.679Z,77.99
2023-05-04T03:25:18.029Z,77.67
2023-05-04T03:26:17.256Z,78.15
2023-05-04T03:27:18.058Z,79.76
2023-05-04T03:28:18.536Z,77.34
2023-05-04T03:29:17.775Z,81.21
2023-05-04T03:30:17.926Z,77.18
2023-05-04T03:31:18.142Z,74.44
2023-05-04T03:32:19.072Z,81.53
2023-05-04T03:33:18.414Z,79.76
2023-05-04T03:34:19.574Z,78.15
2023-05-04T03:35:24.753Z,80.57
2023-05-04T03:36:19.993Z,79.28
2023-05-04T03:37:19.238Z,77.67
2023-05-04T03:38:19.358Z,77.18
2023-05-04T03:39:20.140Z,78.15
2023-05-04T03:40:19.626Z,79.28
2023-05-04T03:41:19.877Z,77.02
2023-05-04T03:42:20.530Z,87.66
2023-05-04T03:43:20.156Z,77.50
2023-05-04T03:44:20.304Z,77.34
2023-05-04T03:45:21.076Z,77.67
2023-05-04T03:46:20.608Z,76.86
2023-05-04T03:47:21.419Z,80.57
2023-05-04T03:48:20.930Z,78.15
2023-05-04T03:49:21.096Z,79.28
2023-05-04T03:50:22.075Z,80.89
2023-05-04T03:51:21.456Z,80.24
2023-05-04T03:52:22.620Z,78.63
2023-05-04T03:53:22.525Z,79.12
2023-05-04T03:54:21.967Z,78.31
2023-05-04T03:55:23.142Z,75.73
2023-05-04T03:56:22.277Z,78.31
2023-05-04T03:57:22.462Z,78.63
2023-05-04T03:58:23.540Z,80.08
2023-05-04T03:59:22.826Z,78.63
2023-05-04T04:00:23.008Z,80.89
2023-05-04T04:01:23.168Z,83.14
2023-05-04T04:02:23.406Z,80.73
2023-05-04T04:03:24.199Z,77.34
2023-05-04T04:04:23.788Z,80.41
2023-05-04T04:05:23.829Z,77.67
2023-05-04T04:06:24.605Z,79.76
2023-05-04T04:07:25.539Z,79.76
2023-05-04T04:08:24.307Z,78.96
2023-05-04T04:09:24.520Z,80.73
2023-05-04T04:10:25.537Z,81.37
2023-05-04T04:11:24.799Z,75.57
2023-05-04T04:12:25.537Z,79.44
2023-05-04T04:13:25.179Z,78.47
2023-05-04T04:14:25.623Z,79.28
2023-05-04T04:15:25.544Z,78.63
2023-05-04T04:16:25.725Z,73.48
2023-05-04T04:17:25.936Z,82.34
2023-05-04T04:18:27.077Z,77.50
2023-05-04T04:19:27.086Z,77.67
2023-05-04T04:20:26.481Z,79.92
2023-05-04T04:21:27.610Z,73.96
2023-05-04T04:22:26.849Z,80.24
2023-05-04T04:23:27.578Z,83.31
2023-05-04T04:24:28.146Z,75.25
2023-05-04T04:25:28.143Z,77.34
2023-05-04T04:26:27.518Z,79.92
2023-05-04T04:27:28.543Z,81.05
2023-05-04T04:28:28.585Z,77.99
2023-05-04T04:29:27.958Z,77.99
2023-05-04T04:30:29.110Z,77.34
2023-05-04T04:31:28.711Z,76.70
2023-05-04T04:32:28.459Z,79.60
2023-05-04T04:33:28.630Z,80.24
2023-05-04T04:34:30.541Z,75.73
2023-05-04T04:35:29.019Z,79.92
2023-05-04T04:36:30.548Z,80.08
2023-05-04T04:37:29.592Z,77.34
2023-05-04T04:38:29.671Z,79.12
2023-05-04T04:39:29.885Z,78.15
2023-05-04T04:40:30.612Z,80.89
2023-05-04T04:41:31.083Z,78.47
2023-05-04T04:42:31.077Z,79.28
2023-05-04T04:43:30.602Z,79.12
2023-05-04T04:44:30.709Z,74.93
2023-05-04T04:45:33.596Z,80.73
2023-05-04T04:46:31.042Z,80.89
2023-05-04T04:47:31.225Z,80.41
2023-05-04T04:48:31.426Z,79.76
2023-05-04T04:49:31.569Z,77.50
2023-05-04T04:50:31.723Z,79.60
2023-05-04T04:51:32.615Z,78.47
2023-05-04T04:52:32.004Z,78.96
2023-05-04T04:53:32.601Z,79.60
2023-05-04T04:54:32.359Z,75.41
2023-05-04T04:55:33.142Z,84.27
2023-05-04T04:56:33.561Z,80.24
2023-05-04T04:57:32.799Z,80.89
2023-05-04T04:58:32.963Z,79.28
2023-05-04T04:59:33.635Z,81.37
2023-05-04T05:00:33.488Z,79.60
2023-05-04T05:01:33.514Z,75.25
2023-05-04T05:02:33.721Z,78.79
2023-05-04T05:03:34.586Z,79.44
2023-05-04T05:04:34.063Z,78.96
2023-05-04T05:05:34.614Z,77.18
2023-05-04T05:06:34.275Z,78.96
2023-05-04T05:07:35.087Z,77.18
2023-05-04T05:08:34.596Z,75.73
2023-05-04T05:09:34.755Z,79.28
2023-05-04T05:10:35.635Z,80.08
2023-05-04T05:11:35.598Z,78.31
2023-05-04T05:12:35.255Z,75.57
2023-05-04T05:13:36.089Z,78.15
2023-05-04T05:14:37.452Z,77.99
2023-05-04T05:15:35.830Z,79.12
2023-05-04T05:16:36.627Z,76.54
2023-05-04T05:17:37.109Z,76.54
2023-05-04T05:18:38.062Z,79.92
2023-05-04T05:19:36.589Z,73.64
2023-05-04T05:20:36.746Z,75.25
2023-05-04T05:21:36.913Z,76.22
2023-05-04T05:22:37.111Z,77.18
2023-05-04T05:23:37.274Z,76.38
2023-05-04T05:24:37.454Z,76.22
2023-05-04T05:25:38.079Z,76.70
2023-05-04T05:26:39.589Z,79.92
2023-05-04T05:27:38.137Z,77.67
2023-05-04T05:28:39.106Z,76.38
2023-05-04T05:29:38.389Z,78.15
2023-05-04T05:30:40.090Z,77.67
2023-05-04T05:31:38.746Z,76.05
2023-05-04T05:32:38.958Z,74.28
2023-05-04T05:33:39.056Z,75.41
2023-05-04T05:34:39.229Z,75.25
2023-05-04T05:35:39.360Z,75.73
2023-05-04T05:36:39.475Z,74.77
2023-05-04T05:37:39.616Z,75.09
2023-05-04T05:38:40.116Z,73.32
2023-05-04T05:39:41.565Z,74.44
2023-05-04T05:40:41.055Z,74.77
2023-05-04T05:41:42.083Z,74.28
2023-05-04T05:42:41.108Z,73.80
2023-05-04T05:43:40.611Z,81.37
2023-05-04T05:44:41.609Z,76.70
2023-05-04T05:45:42.451Z,74.60
2023-05-04T05:46:42.577Z,77.67
2023-05-04T05:47:41.316Z,76.54
2023-05-04T05:48:41.473Z,73.96
2023-05-04T05:49:43.001Z,77.83
2023-05-04T05:50:43.569Z,71.38
2023-05-04T05:51:42.003Z,79.60
2023-05-04T05:52:43.065Z,82.02
2023-05-04T05:53:44.103Z,73.96
2023-05-04T05:54:42.510Z,76.54
2023-05-04T05:55:43.609Z,81.21
2023-05-04T05:56:43.116Z,76.70
2023-05-04T05:57:43.088Z,76.22
2023-05-04T05:58:43.263Z,74.12
2023-05-04T05:59:44.102Z,76.05
2023-05-04T06:00:44.573Z,73.32
2023-05-04T06:01:44.611Z,72.99
2023-05-04T06:02:44.092Z,74.93
2023-05-04T06:03:44.925Z,76.38
2023-05-04T06:04:45.195Z,77.67
2023-05-04T06:05:44.632Z,73.32
2023-05-04T06:06:46.056Z,80.89
2023-05-04T06:07:46.609Z,76.22
2023-05-04T06:08:46.122Z,71.87
2023-05-04T06:09:45.957Z,76.54
2023-05-04T06:10:45.604Z,74.44
2023-05-04T06:11:46.608Z,73.96
2023-05-04T06:12:46.638Z,75.41
2023-05-04T06:13:46.050Z,76.54
2023-05-04T06:14:46.256Z,76.05
2023-05-04T06:15:47.280Z,76.70
2023-05-04T06:16:47.199Z,77.67
2023-05-04T06:17:47.605Z,75.89
2023-05-04T06:18:46.878Z,74.60
2023-05-04T06:19:48.829Z,78.63
2023-05-04T06:20:47.631Z,72.67
2023-05-04T06:21:48.110Z,76.22
2023-05-04T06:22:47.586Z,75.41
2023-05-04T06:23:48.604Z,74.28
2023-05-04T06:24:47.939Z,76.70
2023-05-04T06:25:48.175Z,79.12
2023-05-04T06:26:48.320Z,72.35
2023-05-04T06:27:49.160Z,77.34
2023-05-04T06:28:48.648Z,75.09
2023-05-04T06:29:49.631Z,72.67
2023-05-04T06:30:48.991Z,74.44
2023-05-04T06:31:49.176Z,76.70
2023-05-04T06:32:49.508Z,78.31
2023-05-04T06:33:50.112Z,75.73
2023-05-04T06:34:49.740Z,79.44
2023-05-04T06:35:50.134Z,77.99
2023-05-04T06:36:50.138Z,77.50
2023-05-04T06:38:50.377Z,75.41
2023-05-04T06:39:50.613Z,75.25
2023-05-04T06:40:50.849Z,75.57
2023-05-04T06:41:52.079Z,74.60
2023-05-04T06:42:52.222Z,78.31
2023-05-04T06:43:52.118Z,78.63
2023-05-04T06:44:51.549Z,75.25
2023-05-04T06:45:53.632Z,77.83
2023-05-04T06:46:52.653Z,82.02
2023-05-04T06:47:52.115Z,75.73
2023-05-04T06:48:52.263Z,76.70
2023-05-04T06:49:53.083Z,75.41
2023-05-04T06:50:52.584Z,77.18
2023-05-04T06:51:52.733Z,71.22
2023-05-04T06:52:52.915Z,77.99
2023-05-04T06:53:53.626Z,77.50
2023-05-04T06:54:54.126Z,78.15
2023-05-04T06:55:54.127Z,76.22
2023-05-04T06:56:53.492Z,76.54
2023-05-04T06:57:55.089Z,75.25
2023-05-04T06:58:54.803Z,74.60
2023-05-04T06:59:54.037Z,76.54
2023-05-04T07:00:54.998Z,73.80
2023-05-04T07:01:54.420Z,75.57
2023-05-04T07:02:55.187Z,76.38
2023-05-04T07:03:56.113Z,74.93
2023-05-04T07:04:54.861Z,76.05
2023-05-04T07:05:55.013Z,76.70
2023-05-04T07:06:56.112Z,82.02
2023-05-04T07:07:56.332Z,76.54
2023-05-04T07:08:55.638Z,75.57
2023-05-04T07:09:56.629Z,77.67
2023-05-04T07:10:56.005Z,76.38
2023-05-04T07:11:56.149Z,76.22
2023-05-04T07:12:57.072Z,76.38
2023-05-04T07:13:56.599Z,73.80
2023-05-04T07:14:58.624Z,73.80
2023-05-04T07:15:57.017Z,76.70
2023-05-04T07:16:57.233Z,74.12
2023-05-04T07:17:58.152Z,77.02
2023-05-04T07:18:59.595Z,73.48
2023-05-04T07:20:01.752Z,72.51
2023-05-04T07:21:10.641Z,76.54
2023-05-04T07:22:00.628Z,76.54
2023-05-04T07:22:58.116Z,80.73
2023-05-04T07:23:58.290Z,73.32
2023-05-04T07:24:58.455Z,72.35
2023-05-04T07:25:58.610Z,77.18
2023-05-04T07:26:58.779Z,75.89
2023-05-04T07:27:58.937Z,75.57
2023-05-04T07:28:59.111Z,80.57
2023-05-04T07:30:00.124Z,77.34
2023-05-04T07:30:59.523Z,75.25
2023-05-04T07:32:00.670Z,73.80
2023-05-04T07:32:59.871Z,78.63
2023-05-04T07:34:00.020Z,75.73
2023-05-04T07:35:01.158Z,76.54
2023-05-04T07:36:00.688Z,75.89
2023-05-04T07:37:00.558Z,73.96
2023-05-04T07:38:01.672Z,82.82
2023-05-04T07:39:02.490Z,73.64
2023-05-04T07:40:23.029Z,74.77
2023-05-04T07:41:03.099Z,73.48
2023-05-04T07:42:01.448Z,75.57
2023-05-04T07:43:01.594Z,81.37
2023-05-04T07:44:01.782Z,75.25
2023-05-04T07:45:01.921Z,74.77
2023-05-04T07:46:02.642Z,76.54
2023-05-04T07:47:03.104Z,75.09
2023-05-04T07:48:02.522Z,77.83
2023-05-04T07:49:03.265Z,82.34
2023-05-04T07:50:04.898Z,77.99
2023-05-04T07:51:02.951Z,74.77
2023-05-04T07:52:03.084Z,73.80
2023-05-04T07:53:03.660Z,78.96
2023-05-04T07:54:04.141Z,76.70
2023-05-04T07:55:03.648Z,73.96
2023-05-04T07:56:03.810Z,76.22
2023-05-04T07:57:03.935Z,71.54
2023-05-04T07:58:04.071Z,75.25
2023-05-04T07:59:06.140Z,76.38
2023-05-04T08:00:04.503Z,74.28
2023-05-04T08:01:05.158Z,74.60
2023-05-04T08:02:05.682Z,80.57
2023-05-04T08:03:05.678Z,76.86
2023-05-04T08:04:05.198Z,74.44
2023-05-04T08:05:05.719Z,73.48
2023-05-04T08:06:06.160Z,77.83
2023-05-04T08:07:06.714Z,75.25
2023-05-04T08:08:06.649Z,75.57
2023-05-04T08:09:06.710Z,72.99
2023-05-04T08:10:06.791Z,74.44
2023-05-04T08:11:19.310Z,78.15
2023-05-04T08:12:08.597Z,73.96
2023-05-04T08:13:08.641Z,74.93
2023-05-04T08:14:08.633Z,75.73
2023-05-04T08:15:08.113Z,83.79
2023-05-04T08:16:09.123Z,71.54
2023-05-04T08:17:07.567Z,72.51
2023-05-04T08:18:08.651Z,77.67
2023-05-04T08:19:08.648Z,74.44
2023-05-04T08:20:08.172Z,74.77
2023-05-04T08:21:08.304Z,72.67
2023-05-04T08:22:09.618Z,73.15
2023-05-04T08:23:08.604Z,75.09
2023-05-04T08:24:09.661Z,73.96
2023-05-04T08:25:08.879Z,73.48
2023-05-04T08:26:09.120Z,76.38
2023-05-04T08:27:09.982Z,75.73
2023-05-04T08:28:09.471Z,73.64
2023-05-04T08:29:09.607Z,73.64
2023-05-04T08:30:09.772Z,72.99
2023-05-04T08:31:10.704Z,77.18
2023-05-04T08:32:10.666Z,74.28
2023-05-04T08:33:10.256Z,72.83
2023-05-04T08:34:10.323Z,74.77
2023-05-04T08:35:11.161Z,73.64
2023-05-04T08:36:11.188Z,73.96
2023-05-04T08:37:10.800Z,74.28
2023-05-04T08:38:11.179Z,72.83
2023-05-04T08:39:12.631Z,75.09
2023-05-04T08:40:11.354Z,76.05
2023-05-04T08:41:11.520Z,74.12
2023-05-04T08:42:11.646Z,72.35
2023-05-04T08:43:11.769Z,75.73
2023-05-04T08:44:13.629Z,72.03
2023-05-04T08:45:12.234Z,74.77
2023-05-04T08:46:12.446Z,75.89
2023-05-04T08:47:12.521Z,75.41
2023-05-04T08:48:13.184Z,73.48
2023-05-04T08:49:12.817Z,74.93
2023-05-04T08:50:13.670Z,74.28
2023-05-04T08:51:13.145Z,74.93
2023-05-04T08:52:14.174Z,79.76
2023-05-04T08:53:13.574Z,76.70
2023-05-04T08:54:14.636Z,75.41
2023-05-04T08:55:13.885Z,75.73
2023-05-04T08:56:14.036Z,75.41
2023-05-04T08:57:15.134Z,71.38
2023-05-04T08:58:14.401Z,75.73
2023-05-04T08:59:14.563Z,76.38
2023-05-04T09:00:15.700Z,74.28
2023-05-04T09:01:15.001Z,69.77
2023-05-04T09:02:15.168Z,78.96
2023-05-04T09:03:15.746Z,79.60
2023-05-04T09:04:15.520Z,76.38
2023-05-04T09:05:15.770Z,75.09
2023-05-04T09:06:16.635Z,74.93
2023-05-04T09:07:16.129Z,74.77
2023-05-04T09:08:16.390Z,75.89
2023-05-04T09:09:16.538Z,77.83
2023-05-04T09:10:16.703Z,74.12
2023-05-04T09:11:17.646Z,76.38
2023-05-04T09:12:17.635Z,76.70
2023-05-04T09:13:17.377Z,76.70
2023-05-04T09:14:17.459Z,74.28
2023-05-04T09:15:17.655Z,75.25
2023-05-04T09:16:17.806Z,74.44
2023-05-04T09:17:18.093Z,73.80
2023-05-04T09:18:18.735Z,73.32
2023-05-04T09:19:19.655Z,82.34
2023-05-04T09:20:18.562Z,75.25
2023-05-04T09:21:19.688Z,71.38
2023-05-04T09:22:18.968Z,80.24
2023-05-04T09:23:19.201Z,79.28
2023-05-04T09:24:20.183Z,79.76
2023-05-04T09:25:19.582Z,77.18
2023-05-04T09:26:19.733Z,75.25
2023-05-04T09:27:20.684Z,74.12
2023-05-04T09:28:20.065Z,76.70
2023-05-04T09:29:20.198Z,72.35
2023-05-04T09:30:21.185Z,77.50
2023-05-04T09:31:22.054Z,72.51
2023-05-04T09:32:21.264Z,74.77
2023-05-04T09:33:20.825Z,76.70
2023-05-04T09:34:20.969Z,74.77
2023-05-04T09:35:32.498Z,76.05
2023-05-04T09:36:23.355Z,75.25
2023-05-04T09:37:22.241Z,76.22
2023-05-04T09:38:22.204Z,77.02
2023-05-04T09:39:21.998Z,79.12
2023-05-04T09:40:22.160Z,76.86
2023-05-04T09:41:22.326Z,73.15
2023-05-04T09:42:22.496Z,73.64
2023-05-04T09:43:24.572Z,80.08
2023-05-04T09:44:23.720Z,75.57
2023-05-04T09:45:23.682Z,72.99
2023-05-04T09:46:23.219Z,74.28
2023-05-04T09:47:23.396Z,75.41
2023-05-04T09:48:23.545Z,73.15
2023-05-04T09:49:23.660Z,77.18
2023-05-04T09:50:23.822Z,74.77
2023-05-04T09:51:23.997Z,75.73
2023-05-04T09:52:24.656Z,77.02
2023-05-04T09:53:24.265Z,78.31
2023-05-04T09:54:24.404Z,75.41
2023-05-04T09:55:24.594Z,73.48
2023-05-04T09:56:25.708Z,73.80
2023-05-04T09:57:24.933Z,74.93
2023-05-04T09:58:25.104Z,75.25
2023-05-04T09:59:26.241Z,74.60
2023-05-04T10:00:26.686Z,73.15
2023-05-04T10:01:25.795Z,73.48
2023-05-04T10:02:26.736Z,73.80
2023-05-04T10:03:27.658Z,75.09
2023-05-04T10:04:27.346Z,79.44
2023-05-04T10:05:27.518Z,72.51
2023-05-04T10:06:27.549Z,73.32
2023-05-04T10:07:28.684Z,75.25
2023-05-04T10:08:26.940Z,75.57
2023-05-04T10:09:27.715Z,70.90
2023-05-04T10:10:27.264Z,74.44
2023-05-04T10:11:27.427Z,78.47
2023-05-04T10:12:28.269Z,81.21
2023-05-04T10:13:27.823Z,73.48
2023-05-04T10:14:28.709Z,72.35
2023-05-04T10:15:28.105Z,74.93
2023-05-04T10:16:28.494Z,75.41
2023-05-04T10:17:28.749Z,72.99
2023-05-04T10:18:28.662Z,73.96
2023-05-04T10:19:29.719Z,72.35
2023-05-04T10:20:29.006Z,74.93
2023-05-04T10:21:29.707Z,70.58
2023-05-04T10:22:29.426Z,73.32
2023-05-04T10:23:29.585Z,73.15
2023-05-04T10:24:30.221Z,76.86
2023-05-04T10:25:29.856Z,70.90
2023-05-04T10:26:30.061Z,72.83
2023-05-04T10:27:30.250Z,74.28
2023-05-04T10:28:30.444Z,76.86
2023-05-04T10:29:30.625Z,73.96
2023-05-04T10:30:30.839Z,71.22
2023-05-04T10:31:31.092Z,73.80
2023-05-04T10:32:31.259Z,75.89
2023-05-04T10:33:31.725Z,73.64
2023-05-04T10:34:31.648Z,71.87
2023-05-04T10:35:31.818Z,75.73
2023-05-04T10:36:33.669Z,74.60
2023-05-04T10:37:32.669Z,72.67
2023-05-04T10:38:32.363Z,72.99
2023-05-04T10:39:33.235Z,77.50
2023-05-04T10:40:33.564Z,72.03
2023-05-04T10:41:32.937Z,75.57
2023-05-04T10:42:33.109Z,72.03
2023-05-04T10:43:33.731Z,74.12
2023-05-04T10:44:34.219Z,72.99
2023-05-04T10:45:33.738Z,76.22
2023-05-04T10:46:35.566Z,72.51
2023-05-04T10:47:34.809Z,72.67
2023-05-04T10:48:34.276Z,73.48
2023-05-04T10:49:34.475Z,72.35
2023-05-04T10:50:34.654Z,72.99
2023-05-04T10:51:48.558Z,75.09
2023-05-04T10:52:37.072Z,77.02
2023-05-04T10:53:35.205Z,74.77
2023-05-04T10:54:35.370Z,76.70
2023-05-04T10:55:35.549Z,74.12
2023-05-04T10:56:35.738Z,75.73
2023-05-04T10:57:36.681Z,73.96
2023-05-04T10:58:36.095Z,74.12
2023-05-04T10:59:36.819Z,75.09
2023-05-04T11:00:36.402Z,75.57
2023-05-04T11:01:36.842Z,71.54
2023-05-04T11:02:38.226Z,70.42
2023-05-04T11:03:36.952Z,75.25
2023-05-04T11:04:37.146Z,72.19
2023-05-04T11:05:37.298Z,72.35
2023-05-04T11:06:38.177Z,73.80
2023-05-04T11:07:37.968Z,73.96
2023-05-04T11:08:37.906Z,74.60
2023-05-04T11:09:38.065Z,80.41
2023-05-04T11:10:38.237Z,78.15
2023-05-04T11:11:39.204Z,73.96
2023-05-04T11:12:40.231Z,76.22
2023-05-04T11:13:39.688Z,75.25
2023-05-04T11:14:39.732Z,70.42
2023-05-04T11:15:39.098Z,72.99
2023-05-04T11:16:39.330Z,75.73
2023-05-04T11:17:40.191Z,76.22
2023-05-04T11:18:40.686Z,74.44
2023-05-04T11:19:40.728Z,75.41
2023-05-04T11:20:40.247Z,76.38
2023-05-04T11:21:40.393Z,77.50
2023-05-04T11:22:40.403Z,74.28
2023-05-04T11:23:42.195Z,74.44
2023-05-04T11:24:40.703Z,76.54
2023-05-04T11:25:40.900Z,77.83
2023-05-04T11:26:41.054Z,73.32
2023-05-04T11:27:41.208Z,74.60
2023-05-04T11:28:41.743Z,78.47
2023-05-04T11:29:42.256Z,76.22
2023-05-04T11:30:42.731Z,73.48
2023-05-04T11:31:42.797Z,70.25
2023-05-04T11:32:43.656Z,76.86
2023-05-04T11:33:43.239Z,72.83
2023-05-04T11:34:43.202Z,73.48
2023-05-04T11:35:42.703Z,76.70
2023-05-04T11:36:43.699Z,75.41
2023-05-04T11:37:43.112Z,75.73
2023-05-04T11:38:44.200Z,71.87
2023-05-04T11:39:43.434Z,73.64
2023-05-04T11:40:43.575Z,78.63
2023-05-04T11:41:44.241Z,73.15
2023-05-04T11:42:44.274Z,75.89
2023-05-04T11:43:44.754Z,73.15
2023-05-04T11:44:45.714Z,72.99
2023-05-04T11:45:44.474Z,82.02
2023-05-04T11:46:44.767Z,78.63
2023-05-04T11:47:45.810Z,72.35
2023-05-04T11:48:45.251Z,72.35
2023-05-04T11:49:45.262Z,76.70
2023-05-04T11:50:46.241Z,79.44
2023-05-04T11:51:45.629Z,78.31
2023-05-04T11:52:46.696Z,73.64
2023-05-04T11:53:46.754Z,74.77
2023-05-04T11:54:46.163Z,77.67
2023-05-04T11:55:46.320Z,72.19
2023-05-04T11:56:46.470Z,84.59
2023-05-04T11:57:46.622Z,79.44
2023-05-04T11:58:47.701Z,73.15
2023-05-04T11:59:47.748Z,75.57
2023-05-04T12:00:47.749Z,75.09
2023-05-04T12:01:48.091Z,72.99
2023-05-04T12:02:47.476Z,73.96
2023-05-04T12:03:53.941Z,71.87
2023-05-04T12:04:49.774Z,72.99
2023-05-04T12:05:48.638Z,74.77
2023-05-04T12:06:48.277Z,73.48
2023-05-04T12:07:49.206Z,71.70
2023-05-04T12:08:48.447Z,73.80
2023-05-04T12:09:48.596Z,72.99
2023-05-04T12:10:49.772Z,75.57
2023-05-04T12:11:49.707Z,70.90
2023-05-04T12:12:49.167Z,77.34
2023-05-04T12:13:49.377Z,72.35
2023-05-04T12:14:49.545Z,73.32
2023-05-04T12:15:49.704Z,70.58
2023-05-04T12:16:50.760Z,75.41
2023-05-04T12:17:51.354Z,74.60
2023-05-04T12:18:51.146Z,75.09
2023-05-04T12:19:52.261Z,73.32
2023-05-04T12:20:50.503Z,85.72
2023-05-04T12:21:50.769Z,73.96
2023-05-04T12:22:51.766Z,74.44
2023-05-04T12:23:50.918Z,74.93
2023-05-04T12:24:51.098Z,74.12
2023-05-04T12:25:57.832Z,75.09
2023-05-04T12:26:54.268Z,71.06
2023-05-04T12:27:51.501Z,72.99
2023-05-04T12:28:51.794Z,72.51
2023-05-04T12:29:51.847Z,74.28
2023-05-04T12:30:52.005Z,71.87
2023-05-04T12:31:52.826Z,72.51
2023-05-04T12:32:54.266Z,73.48
2023-05-04T12:33:52.601Z,75.09
2023-05-04T12:34:52.702Z,75.73
2023-05-04T12:35:52.893Z,75.73
2023-05-04T12:36:53.058Z,74.93
2023-05-04T12:37:53.852Z,71.38
2023-05-04T12:38:53.375Z,73.64
2023-05-04T12:39:54.721Z,78.79
2023-05-04T12:40:54.716Z,71.22
2023-05-04T12:41:53.897Z,74.93
2023-05-04T12:42:54.059Z,73.15
2023-05-04T12:43:54.217Z,71.54
2023-05-04T12:44:55.236Z,73.32
2023-05-04T12:45:54.589Z,71.38
2023-05-04T12:46:54.657Z,71.54
2023-05-04T12:47:55.821Z,73.15
2023-05-04T12:48:54.985Z,72.35
2023-05-04T12:49:55.778Z,75.09
2023-05-04T12:50:55.775Z,76.38
2023-05-04T12:51:57.264Z,71.87
2023-05-04T12:52:55.783Z,70.58
2023-05-04T12:53:55.811Z,72.35
2023-05-04T12:54:56.723Z,70.74
2023-05-04T12:55:56.107Z,69.77